Time;durP1;ratioP1;P1;durP2;ratioP2;P2;SDS_P1;SDS_P2;PMS_P1;PMS_P2;Temp;Humidity;BMP_temperature;BMP_pressure;BME280_temperature;BME280_humidity;BME280_pressure;Samples;Min_cycle;Max_cycle;Signal;HPM_P1;HPM_P2
2022/05/12 00:00:35;;;;;;;0.40;0.20;;;;;;;15.15;100.00;95891.13;5114011;28;20478;-57
2022/05/12 00:03:07;;;;;;;0.93;0.93;;;;;;;14.72;100.00;95902.81;5114302;28;20933;-57
2022/05/12 00:05:35;;;;;;;0.40;0.20;;;;;;;15.10;100.00;95895.75;5114440;28;20475;-57
2022/05/12 00:08:05;;;;;;;4.53;0.40;;;;;;;15.28;100.00;95892.31;5114483;28;20554;-57
2022/05/12 00:10:34;;;;;;;0.40;0.40;;;;;;;15.30;100.00;95889.41;5114334;28;20484;-57
2022/05/12 00:13:03;;;;;;;0.40;0.30;;;;;;;15.23;100.00;95889.72;5114081;28;20424;-57
2022/05/12 00:15:34;;;;;;;0.40;0.30;;;;;;;15.17;100.00;95893.53;5114400;28;20467;-57
2022/05/12 00:18:06;;;;;;;0.40;0.40;;;;;;;15.30;100.00;95897.41;5114349;28;20805;-57
2022/05/12 00:20:37;;;;;;;0.60;0.50;;;;;;;15.29;100.00;95896.59;5114177;28;20602;-67
2022/05/12 00:23:13;;;;;;;0.50;0.50;;;;;;;15.28;100.00;95892.31;5114005;28;20861;-68
2022/05/12 00:25:44;;;;;;;0.50;0.47;;;;;;;15.25;100.00;95883.00;5113836;28;20506;-68
2022/05/12 00:28:13;;;;;;;0.40;0.20;;;;;;;15.22;100.00;95891.63;5114328;28;20423;-68
2022/05/12 00:30:42;;;;;;;0.40;0.20;;;;;;;15.12;100.00;95890.94;5113876;28;20436;-68
2022/05/12 00:33:11;;;;;;;0.40;0.30;;;;;;;14.91;100.00;95889.53;5113897;28;20459;-68
2022/05/12 00:35:41;;;;;;;0.40;0.27;;;;;;;14.02;100.00;95843.59;5113808;28;20959;-68
2022/05/12 00:38:12;;;;;;;0.40;0.20;;;;;;;14.07;100.00;95901.38;5113844;28;20457;-69
2022/05/12 00:40:43;;;;;;;0.40;0.20;;;;;;;14.51;100.00;95896.84;5113972;28;20853;-69
2022/05/12 00:43:37;;;;;;;0.40;0.30;;;;;;;14.64;100.00;95898.06;5114041;28;20502;-69
2022/05/12 00:46:07;;;;;;;0.40;0.20;;;;;;;14.28;100.00;95833.53;5115068;28;20487;-69
2022/05/12 00:48:38;;;;;;;0.40;0.30;;;;;;;14.57;100.00;95878.94;5119525;28;20443;-68
2022/05/12 00:51:08;;;;;;;0.40;0.30;;;;;;;14.53;100.00;95894.69;5116789;28;20862;-68
2022/05/12 00:53:39;;;;;;;0.40;0.20;;;;;;;14.74;100.00;95894.50;5113830;28;20799;-69
2022/05/12 00:56:11;;;;;;;0.53;0.53;;;;;;;14.66;100.00;95892.44;5113518;28;20496;-69
2022/05/12 00:58:40;;;;;;;0.40;0.30;;;;;;;14.79;100.00;95892.59;5113577;28;20526;-69
2022/05/12 01:01:11;;;;;;;0.40;0.20;;;;;;;14.74;100.00;95899.84;5113280;28;20484;-69
2022/05/12 01:03:42;;;;;;;0.40;0.20;;;;;;;13.99;100.00;95841.47;5113148;28;20423;-69
2022/05/12 01:06:14;;;;;;;0.40;0.30;;;;;;;14.19;100.00;95901.84;5113693;28;20506;-69
2022/05/12 01:08:46;;;;;;;0.40;0.30;;;;;;;14.26;100.00;95901.53;5113255;28;20557;-69
2022/05/12 01:11:16;;;;;;;0.50;0.43;;;;;;;14.17;100.00;95895.19;5113435;28;20506;-69
2022/05/12 01:13:50;;;;;;;0.40;0.30;;;;;;;14.37;100.00;95892.44;5113006;28;20432;-69
2022/05/12 01:16:35;;;;;;;0.40;0.30;;;;;;;14.43;100.00;95888.63;5113179;28;20467;-69
2022/05/12 01:19:04;;;;;;;0.60;0.40;;;;;;;14.13;100.00;95836.31;5113411;28;20420;-70
2022/05/12 01:21:33;;;;;;;0.40;0.20;;;;;;;14.44;100.00;95884.91;5112894;28;20507;-69
2022/05/12 01:24:04;;;;;;;0.40;0.30;;;;;;;14.51;100.00;95874.69;5113047;28;20455;-69
2022/05/12 01:26:33;;;;;;;0.50;0.40;;;;;;;14.50;100.00;95876.56;5112868;28;20566;-69
2022/05/12 01:29:01;;;;;;;0.40;0.23;;;;;;;14.17;100.00;95831.19;5112721;28;20503;-69
2022/05/12 01:31:30;;;;;;;0.40;0.30;;;;;;;14.27;100.00;95879.13;5112242;28;20519;-69
2022/05/12 01:33:59;;;;;;;0.83;0.83;;;;;;;14.28;100.00;95886.03;5112952;28;20809;-69
2022/05/12 01:36:27;;;;;;;0.40;0.20;;;;;;;14.16;100.00;95888.28;5112586;28;20464;-69
2022/05/12 01:38:56;;;;;;;0.40;0.27;;;;;;;13.86;100.00;95884.72;5112362;28;20932;-69
2022/05/12 01:41:26;;;;;;;0.40;0.30;;;;;;;14.06;100.00;95893.69;5112642;28;20424;-69
2022/05/12 01:43:54;;;;;;;0.40;0.40;;;;;;;14.02;100.00;95878.22;5112708;28;20872;-69
2022/05/12 01:46:22;;;;;;;0.40;0.30;;;;;;;14.01;100.00;95883.84;5112421;28;20510;-69
2022/05/12 01:48:51;;;;;;;0.40;0.40;;;;;;;13.39;100.00;95895.06;5112456;28;21070;-69
2022/05/12 01:51:19;;;;;;;0.40;0.30;;;;;;;12.83;100.00;95896.25;5112530;28;20975;-69
2022/05/12 01:53:48;;;;;;;0.50;0.40;;;;;;;12.51;100.00;95902.69;5112496;28;20924;-69
2022/05/12 01:56:16;;;;;;;0.40;0.40;;;;;;;12.30;100.00;95895.78;5112427;28;20563;-68
2022/05/12 01:58:46;;;;;;;0.90;0.80;;;;;;;12.49;100.00;95906.69;5112726;28;20846;-68
2022/05/12 02:01:14;;;;;;;0.60;0.60;;;;;;;13.01;100.00;95899.16;5112619;28;20504;-68
2022/05/12 02:03:43;;;;;;;0.53;0.50;;;;;;;12.97;100.00;95905.28;5112781;28;20442;-68
2022/05/12 02:06:11;;;;;;;0.40;0.40;;;;;;;12.95;100.00;95883.50;5112517;28;20467;-67
2022/05/12 02:08:40;;;;;;;0.40;0.30;;;;;;;13.40;100.00;95906.53;5112416;28;20506;-68
2022/05/12 02:11:09;;;;;;;0.50;0.50;;;;;;;13.53;100.00;95900.63;5112483;28;20431;-68
2022/05/12 02:13:37;;;;;;;0.40;0.30;;;;;;;13.48;100.00;95909.44;5112703;28;20880;-68
2022/05/12 02:16:07;;;;;;;0.83;0.57;;;;;;;13.54;100.00;95899.53;5112192;28;20519;-68
2022/05/12 02:18:35;;;;;;;0.80;0.40;;;;;;;13.55;100.00;95911.78;5112679;28;20498;-68
2022/05/12 02:21:04;;;;;;;0.40;0.30;;;;;;;13.57;100.00;95912.31;5112611;28;20456;-68
2022/05/12 02:23:32;;;;;;;0.40;0.20;;;;;;;13.65;100.00;95919.75;5112505;28;20462;-68
2022/05/12 02:26:01;;;;;;;0.67;0.67;;;;;;;13.65;100.00;95899.22;5112327;28;20903;-68
2022/05/12 02:28:29;;;;;;;0.40;0.30;;;;;;;13.63;100.00;95912.03;5112298;28;20475;-68
2022/05/12 02:30:57;;;;;;;0.40;0.20;;;;;;;13.70;100.00;95911.72;5111871;28;20459;-68
2022/05/12 02:33:27;;;;;;;1.13;0.50;;;;;;;13.71;100.00;95910.66;5112225;28;20484;-67
2022/05/12 02:35:56;;;;;;;0.40;0.30;;;;;;;13.79;100.00;95918.88;5111958;28;20431;-68
2022/05/12 02:38:25;;;;;;;0.40;0.30;;;;;;;13.69;100.00;95916.25;5111654;28;20454;-68
2022/05/12 02:40:53;;;;;;;0.40;0.20;;;;;;;13.48;100.00;95911.28;5114828;28;20423;-68
2022/05/12 02:43:25;;;;;;;0.40;0.30;;;;;;;13.43;100.00;95912.13;5116373;28;20504;-68
2022/05/12 02:45:55;;;;;;;0.40;0.30;;;;;;;12.81;100.00;95915.16;5115783;28;21048;-68
2022/05/12 02:48:26;;;;;;;0.40;0.20;;;;;;;12.71;100.00;95869.97;5116507;28;20803;-68
2022/05/12 02:50:58;;;;;;;0.40;0.30;;;;;;;13.08;100.00;95915.66;5115847;28;20438;-68
2022/05/12 02:53:28;;;;;;;0.40;0.30;;;;;;;12.98;100.00;95883.72;5115883;28;20462;-68
2022/05/12 02:55:59;;;;;;;2.20;1.70;;;;;;;13.18;100.00;95909.53;5116911;28;20963;-68
2022/05/12 02:58:29;;;;;;;0.40;0.20;;;;;;;13.15;100.00;95910.09;5119364;28;20451;-68
2022/05/12 03:00:58;;;;;;;0.40;0.30;;;;;;;12.51;100.00;95824.78;5119026;28;20459;-68
2022/05/12 03:03:27;;;;;;;0.40;0.20;;;;;;;12.73;100.00;95850.00;5116141;28;20447;-68
2022/05/12 03:05:57;;;;;;;0.40;0.40;;;;;;;13.09;100.00;95911.16;5116450;28;20466;-68
2022/05/12 03:08:25;;;;;;;0.40;0.40;;;;;;;13.15;100.00;95905.56;5115426;28;21047;-68
2022/05/12 03:10:54;;;;;;;0.90;0.40;;;;;;;13.05;100.00;95905.56;5115406;28;20462;-68
2022/05/12 03:13:23;;;;;;;0.50;0.50;;;;;;;13.09;100.00;95905.81;5115478;28;20466;-76
2022/05/12 03:15:52;;;;;;;0.80;0.77;;;;;;;13.07;100.00;95911.44;5115515;28;20420;-66
2022/05/12 03:18:21;;;;;;;0.40;0.40;;;;;;;13.07;100.00;95910.63;5115676;28;20498;-66
2022/05/12 03:20:49;;;;;;;0.77;0.77;;;;;;;13.01;100.00;95901.81;5115155;28;20427;-65
2022/05/12 03:23:25;;;;;;;0.40;0.30;;;;;;;13.04;100.00;95919.13;5115182;28;20423;-66
2022/05/12 03:25:54;;;;;;;0.40;0.30;;;;;;;13.06;100.00;95917.81;5115177;28;20467;-65
2022/05/12 03:28:23;;;;;;;0.40;0.40;;;;;;;12.96;100.00;95914.34;5115406;28;20849;-65
2022/05/12 03:30:52;;;;;;;0.40;0.30;;;;;;;12.65;100.00;95913.56;5114959;28;20466;-66
2022/05/12 03:33:21;;;;;;;0.40;0.40;;;;;;;12.43;100.00;95926.34;5114881;28;20932;-66
2022/05/12 03:35:50;;;;;;;0.40;0.40;;;;;;;12.77;100.00;95925.53;5114862;28;20531;-65
2022/05/12 03:38:19;;;;;;;2.00;0.53;;;;;;;12.88;100.00;95922.84;5115234;28;20451;-65
2022/05/12 03:40:49;;;;;;;0.50;0.43;;;;;;;12.93;100.00;95921.00;5114490;28;20921;-66
2022/05/12 03:45:59;;;;;;;0.40;0.20;;;;;;;12.87;100.00;95866.22;5115085;27;20488;-66
2022/05/12 03:48:28;;;;;;;0.60;0.60;;;;;;;13.22;100.00;95929.22;5114962;28;20423;-66
2022/05/12 03:50:57;;;;;;;1.23;0.40;;;;;;;13.14;100.00;95925.25;5113276;28;20843;-66
2022/05/12 03:53:26;;;;;;;0.40;0.40;;;;;;;13.20;100.00;95936.69;5114644;28;20419;-66
2022/05/12 03:55:55;;;;;;;0.40;0.40;;;;;;;13.08;100.00;95941.50;5114862;28;20427;-65
2022/05/12 03:58:24;;;;;;;0.60;0.40;;;;;;;13.10;100.00;95929.53;5114648;27;20516;-65
2022/05/12 04:00:53;;;;;;;0.40;0.30;;;;;;;13.30;100.00;95939.31;5113109;28;20432;-65
2022/05/12 04:03:22;;;;;;;0.50;0.40;;;;;;;13.23;100.00;95922.84;5112115;28;20506;-66
2022/05/12 04:05:50;;;;;;;0.60;0.60;;;;;;;13.26;100.00;95932.91;5112119;28;21009;-66
2022/05/12 04:08:19;;;;;;;0.60;0.40;;;;;;;13.06;100.00;95944.41;5112300;28;20510;-66
2022/05/12 04:10:48;;;;;;;4.10;0.30;;;;;;;12.55;100.00;95948.94;5112897;28;20531;-66
2022/05/12 04:13:18;;;;;;;0.40;0.37;;;;;;;11.67;100.00;95958.03;5112787;28;20485;-65
2022/05/12 04:15:47;;;;;;;0.40;0.33;;;;;;;11.35;100.00;95958.19;5112742;28;20514;-65
2022/05/12 04:18:15;;;;;;;3.93;0.57;;;;;;;11.56;100.00;95939.69;5114154;28;20945;-65
2022/05/12 04:20:44;;;;;;;1.33;0.50;;;;;;;11.96;100.00;95959.25;5113784;28;20523;-65
2022/05/12 04:23:12;;;;;;;0.40;0.20;;;;;;;12.42;100.00;95960.09;5113891;28;20423;-65
2022/05/12 04:25:41;;;;;;;1.23;0.60;;;;;;;11.95;100.00;95906.38;5114095;28;20462;-66
2022/05/12 04:28:09;;;;;;;0.40;0.30;;;;;;;12.66;100.00;95955.06;5113851;28;20999;-68
2022/05/12 04:30:39;;;;;;;0.73;0.73;;;;;;;12.79;100.00;95959.06;5114354;28;20459;-65
2022/05/12 04:35:53;;;;;;;0.50;0.30;;;;;;;13.46;100.00;95959.50;5113721;28;20478;-66
2022/05/12 04:38:22;;;;;;;0.93;0.80;;;;;;;13.31;100.00;95882.31;5113963;28;20420;-66
2022/05/12 04:40:51;;;;;;;0.40;0.30;;;;;;;13.78;100.00;95962.59;5113519;28;20489;-66
2022/05/12 04:43:20;;;;;;;0.93;0.57;;;;;;;13.16;100.00;95948.91;5113812;28;20424;-66
2022/05/12 04:45:50;;;;;;;0.60;0.50;;;;;;;13.19;100.00;95964.34;5113399;28;20445;-65
2022/05/12 04:48:24;;;;;;;0.40;0.33;;;;;;;12.88;100.00;95970.75;5113336;28;21010;-66
2022/05/12 04:50:52;;;;;;;0.40;0.40;;;;;;;12.82;100.00;95969.97;5113750;28;20419;-65
2022/05/12 04:53:21;;;;;;;0.40;0.30;;;;;;;12.98;100.00;95960.13;5113707;28;20770;-65
2022/05/12 04:55:49;;;;;;;0.40;0.30;;;;;;;13.10;100.00;95965.97;5113395;28;20828;-66
2022/05/12 04:58:18;;;;;;;0.97;0.77;;;;;;;13.04;100.00;95914.59;5113353;28;20431;-66
2022/05/12 05:00:47;;;;;;;0.40;0.20;;;;;;;13.74;100.00;95966.03;5113367;28;20428;-66
2022/05/12 05:03:17;;;;;;;0.30;0.20;;;;;;;13.94;100.00;95960.63;5112490;28;20424;-67
2022/05/12 05:05:48;;;;;;;1.80;0.60;;;;;;;14.17;100.00;95964.50;5114225;28;20428;-66
2022/05/12 05:08:18;;;;;;;0.43;0.40;;;;;;;13.63;100.00;95920.03;5114346;28;20570;-67
2022/05/12 05:10:48;;;;;;;0.50;0.50;;;;;;;14.11;100.00;95966.41;5114627;28;20412;-67
2022/05/12 05:13:18;;;;;;;1.20;1.10;;;;;;;13.74;100.00;95969.50;5112552;28;20420;-67
2022/05/12 05:15:48;;;;;;;0.50;0.40;;;;;;;13.83;100.00;95935.13;5113488;28;20415;-68
2022/05/12 05:18:19;;;;;;;1.23;1.23;;;;;;;13.58;100.00;95967.19;5112952;28;20518;-68
2022/05/12 05:20:49;;;;;;;2.17;1.00;;;;;;;13.94;100.00;95969.41;5112962;28;20476;-68
2022/05/12 05:23:21;;;;;;;0.63;0.63;;;;;;;13.17;100.00;95916.72;5112599;28;20431;-69
2022/05/12 05:25:51;;;;;;;0.50;0.50;;;;;;;14.10;100.00;95970.16;5112675;28;20427;-69
2022/05/12 05:28:19;;;;;;;3.43;2.73;;;;;;;14.18;100.00;95963.44;5113064;28;20547;-70
2022/05/12 05:30:48;;;;;;;2.30;0.60;;;;;;;14.57;100.00;95953.63;5112945;28;20453;-71
2022/05/12 05:33:18;;;;;;;5.23;3.23;;;;;;;14.89;100.00;95961.88;5112887;28;20484;-71
2022/05/12 05:35:47;;;;;;;2.20;1.23;;;;;;;15.23;100.00;95949.28;5112855;28;20481;-72
2022/05/12 05:38:15;;;;;;;0.50;0.50;;;;;;;15.67;100.00;95950.97;5113012;28;20436;-72
2022/05/12 05:40:44;;;;;;;4.60;1.60;;;;;;;15.59;100.00;95959.59;5112741;28;20511;-73
2022/05/12 05:43:14;;;;;;;0.90;0.73;;;;;;;15.31;100.00;95955.88;5112265;28;20423;-74
2022/05/12 05:45:43;;;;;;;1.07;0.70;;;;;;;15.17;100.00;95953.09;5112907;28;20447;-74
2022/05/12 05:48:11;;;;;;;1.00;0.60;;;;;;;15.81;100.00;95951.88;5112104;28;20547;-75
2022/05/12 05:53:33;;;;;;;0.70;0.70;;;;;;;15.70;100.00;95947.72;5112956;28;20432;-76
2022/05/12 05:56:02;;;;;;;1.87;0.83;;;;;;;16.36;100.00;95945.78;5112782;28;20963;-74
2022/05/12 05:58:31;;;;;;;0.50;0.40;;;;;;;16.84;98.54;95938.38;5112572;28;20846;-73
2022/05/12 06:01:00;;;;;;;0.40;0.30;;;;;;;17.34;92.04;95920.59;5112594;28;20440;-72
2022/05/12 06:03:29;;;;;;;0.50;0.30;;;;;;;17.84;84.60;95940.25;5112859;28;20818;-70
2022/05/12 06:05:59;;;;;;;0.50;0.40;;;;;;;17.77;85.83;95938.00;5112878;28;20439;-68
2022/05/12 06:08:27;;;;;;;0.53;0.50;;;;;;;17.57;87.96;95935.72;5112698;28;20552;-69
2022/05/12 06:11:03;;;;;;;0.50;0.43;;;;;;;18.31;83.05;95937.13;5113077;28;20473;-68
2022/05/12 06:13:34;;;;;;;0.53;0.40;;;;;;;18.98;76.53;95940.63;5113563;28;20415;-66
2022/05/12 06:16:04;;;;;;;0.73;0.30;;;;;;;19.06;75.21;95936.41;5124386;28;20412;-65
2022/05/12 06:18:36;;;;;;;0.53;0.40;;;;;;;19.01;75.87;95931.97;5126418;27;20462;-65
2022/05/12 06:21:09;;;;;;;0.70;0.40;;;;;;;18.80;78.20;95930.88;5130604;28;20419;-66
2022/05/12 06:23:38;;;;;;;0.40;0.30;;;;;;;19.38;73.65;95930.00;5129169;28;20442;-66
2022/05/12 06:26:13;;;;;;;0.63;0.57;;;;;;;18.10;78.88;95876.16;5126588;28;20493;-65
2022/05/12 06:28:42;;;;;;;0.63;0.60;;;;;;;19.11;76.53;95919.38;5117580;28;20538;-65
2022/05/12 06:31:11;;;;;;;0.40;0.30;;;;;;;19.37;78.10;95929.19;5116048;28;20474;-65
2022/05/12 06:33:41;;;;;;;0.67;0.40;;;;;;;19.53;70.93;95891.94;5115938;28;20467;-64
2022/05/12 06:36:11;;;;;;;0.73;0.40;;;;;;;19.75;68.19;95883.75;5117711;28;20450;-65
2022/05/12 06:38:41;;;;;;;0.50;0.30;;;;;;;20.77;66.27;95918.03;5118248;27;20952;-64
2022/05/12 06:41:12;;;;;;;0.40;0.30;;;;;;;20.78;64.61;95916.16;5116402;28;20827;-64
2022/05/12 06:43:45;;;;;;;0.50;0.30;;;;;;;20.79;64.26;95915.84;5117961;28;20506;-64
2022/05/12 06:46:15;;;;;;;0.90;0.80;;;;;;;20.01;63.62;95854.97;5115883;28;20985;-63
2022/05/12 06:48:46;;;;;;;0.70;0.50;;;;;;;20.73;62.19;95913.63;5116403;28;20833;-63
2022/05/12 06:51:17;;;;;;;11.53;1.53;;;;;;;20.84;62.61;95912.19;5116137;28;20447;-63
2022/05/12 06:53:46;;;;;;;1.33;0.40;;;;;;;21.44;57.99;95910.16;5115593;28;20463;-62
2022/05/12 06:56:17;;;;;;;0.93;0.93;;;;;;;21.03;59.79;95907.22;5115987;28;20450;-62
2022/05/12 06:58:46;;;;;;;1.10;1.10;;;;;;;20.82;58.53;95909.03;5116661;28;20415;-63
2022/05/12 07:01:15;;;;;;;0.73;0.50;;;;;;;21.01;57.58;95895.97;5116132;28;20867;-63
2022/05/12 07:03:44;;;;;;;0.60;0.60;;;;;;;21.04;57.60;95843.34;5116902;28;20433;-62
2022/05/12 07:06:13;;;;;;;0.47;0.40;;;;;;;22.50;52.57;95890.00;5116011;28;20443;-62
2022/05/12 07:08:44;;;;;;;1.67;0.63;;;;;;;22.58;53.98;95886.44;5117494;28;20510;-64
2022/05/12 07:11:13;;;;;;;1.03;1.03;;;;;;;22.82;50.62;95887.69;5115701;28;20816;-63
2022/05/12 07:13:42;;;;;;;0.70;0.50;;;;;;;22.92;53.11;95892.69;5115792;28;20443;-65
2022/05/12 07:16:11;;;;;;;0.50;0.40;;;;;;;22.98;48.43;95884.00;5115458;28;20480;-66
2022/05/12 07:18:46;;;;;;;0.50;0.40;;;;;;;23.14;47.81;95884.16;5116153;28;20419;-66
2022/05/12 07:26:53;;;;;;;0.80;0.60;;;;;;;23.94;45.82;95852.75;5115132;27;20443;-70
2022/05/12 07:29:23;;;;;;;0.87;0.50;;;;;;;23.85;48.85;95866.44;5115403;28;20463;-70
2022/05/12 07:31:51;;;;;;;0.70;0.70;;;;;;;23.63;45.67;95866.13;5115320;28;20431;-68
2022/05/12 07:34:21;;;;;;;0.40;0.30;;;;;;;24.25;43.53;95863.00;5115654;28;20430;-70
2022/05/12 07:36:52;;;;;;;1.27;1.27;;;;;;;24.48;42.26;95862.16;5116050;28;20458;-66
2022/05/12 07:39:26;;;;;;;0.50;0.50;;;;;;;24.35;43.70;95862.53;5114830;28;20503;-68
2022/05/12 07:41:55;;;;;;;0.40;0.30;;;;;;;25.65;41.48;95854.41;5115616;28;20954;-69
2022/05/12 07:44:31;;;;;;;0.70;0.50;;;;;;;24.82;40.49;95866.19;5116959;28;20480;-69
2022/05/12 07:47:01;;;;;;;0.80;0.60;;;;;;;25.12;40.23;95864.69;5116750;28;20936;-69
2022/05/12 07:49:32;;;;;;;0.60;0.50;;;;;;;26.03;39.20;95851.81;5139913;28;20455;-68
2022/05/12 07:52:01;;;;;;;0.40;0.30;;;;;;;26.37;38.35;95851.00;5134887;28;20428;-66
2022/05/12 07:54:31;;;;;;;0.70;0.50;;;;;;;26.08;39.34;95848.81;5119110;27;20427;-66
2022/05/12 07:57:00;;;;;;;0.73;0.73;;;;;;;25.93;38.45;95849.63;5123363;28;20431;-64
2022/05/12 07:59:29;;;;;;;0.63;0.63;;;;;;;25.24;39.36;95844.84;5123905;28;20442;-65
2022/05/12 08:01:59;;;;;;;1.07;0.50;;;;;;;25.43;39.57;95844.13;5120066;28;20419;-64
2022/05/12 08:04:28;;;;;;;1.00;1.00;;;;;;;24.58;40.25;95793.09;5114415;27;20482;-64
2022/05/12 08:06:59;;;;;;;0.40;0.33;;;;;;;25.05;41.59;95850.94;5113895;28;20988;-64
2022/05/12 08:09:27;;;;;;;0.60;0.53;;;;;;;25.98;38.80;95841.22;5113910;28;20471;-64
2022/05/12 08:11:57;;;;;;;0.53;0.43;;;;;;;26.96;38.33;95847.94;5114074;28;20424;-62
2022/05/12 08:14:25;;;;;;;1.13;1.03;;;;;;;26.60;38.86;95844.84;5114134;28;21038;-62
2022/05/12 08:16:54;;;;;;;0.63;0.53;;;;;;;26.18;37.88;95844.78;5113852;28;20459;-60
2022/05/12 08:19:23;;;;;;;0.63;0.63;;;;;;;26.02;37.91;95842.06;5114320;28;20432;-60
2022/05/12 08:21:51;;;;;;;2.53;0.50;;;;;;;27.09;36.82;95841.19;5114001;28;20523;-60
2022/05/12 08:24:19;;;;;;;0.50;0.47;;;;;;;26.23;38.19;95836.34;5114269;28;20452;-59
2022/05/12 08:26:48;;;;;;;1.20;0.80;;;;;;;26.99;37.43;95840.97;5113810;28;20481;-64
2022/05/12 08:29:19;;;;;;;0.60;0.50;;;;;;;27.14;38.35;95834.66;5113926;28;20522;-60
2022/05/12 08:31:47;;;;;;;0.97;0.40;;;;;;;26.48;38.19;95832.19;5113656;28;20523;-59
2022/05/12 08:34:16;;;;;;;0.50;0.50;;;;;;;26.92;37.71;95836.19;5113916;28;20817;-59
2022/05/12 08:36:44;;;;;;;0.93;0.90;;;;;;;26.32;38.01;95832.25;5113246;28;20430;-59
2022/05/12 08:39:12;;;;;;;0.60;0.60;;;;;;;27.46;39.09;95824.31;5113064;28;20515;-59
2022/05/12 08:41:48;;;;;;;0.43;0.43;;;;;;;28.52;35.71;95810.25;5113535;28;20458;-59
2022/05/12 08:44:21;;;;;;;1.27;0.60;;;;;;;28.30;35.34;95824.81;5113705;28;20458;-60
2022/05/12 08:46:54;;;;;;;0.63;0.60;;;;;;;26.98;35.13;95825.78;5113348;28;20466;-61
2022/05/12 08:49:27;;;;;;;0.77;0.77;;;;;;;28.03;34.46;95817.81;5113341;27;20998;-60
2022/05/12 08:52:10;;;;;;;0.70;0.70;;;;;;;28.08;34.98;95822.94;5113591;28;20460;-61
2022/05/12 08:54:43;;;;;;;0.43;0.30;;;;;;;29.29;34.34;95815.03;5113446;28;20451;-61
2022/05/12 08:57:27;;;;;;;0.43;0.43;;;;;;;30.30;33.20;95814.19;5113040;28;20447;-61
2022/05/12 08:59:59;;;;;;;0.40;0.30;;;;;;;30.43;33.81;95798.25;5113549;28;20514;-61
2022/05/12 09:02:39;;;;;;;0.60;0.57;;;;;;;28.46;33.34;95817.22;5113118;28;20948;-61
2022/05/12 09:05:11;;;;;;;0.40;0.30;;;;;;;27.97;32.69;95768.28;5113438;28;20443;-61
2022/05/12 09:07:46;;;;;;;0.60;0.60;;;;;;;28.68;32.79;95819.06;5112794;28;20852;-61
2022/05/12 09:10:27;;;;;;;0.40;0.30;;;;;;;29.54;31.37;95807.81;5113162;28;21003;-61
2022/05/12 09:13:00;;;;;;;0.43;0.40;;;;;;;29.13;31.87;95814.44;5113186;28;20434;-61
2022/05/12 09:15:33;;;;;;;0.57;0.47;;;;;;;28.41;32.14;95800.41;5113024;28;20435;-61
2022/05/12 09:18:04;;;;;;;0.50;0.47;;;;;;;28.95;30.36;95789.72;5113034;28;21119;-61
2022/05/12 09:20:35;;;;;;;1.57;0.90;;;;;;;29.07;31.01;95802.31;5113070;28;20462;-61
2022/05/12 09:23:05;;;;;;;1.33;0.50;;;;;;;29.76;32.04;95801.34;5112750;28;20481;-61
2022/05/12 09:25:36;;;;;;;0.50;0.50;;;;;;;28.81;31.73;95809.47;5112991;28;20487;-61
2022/05/12 09:28:26;;;;;;;0.60;0.60;;;;;;;29.13;30.74;95800.78;5113002;28;20408;-61
2022/05/12 09:31:01;;;;;;;0.93;0.93;;;;;;;30.58;29.42;95797.13;5113260;28;20546;-62
2022/05/12 09:33:34;;;;;;;0.87;0.87;;;;;;;31.28;26.88;95797.31;5113079;28;20430;-62
2022/05/12 09:36:05;;;;;;;0.73;0.50;;;;;;;30.52;25.41;95787.72;5112669;28;20956;-63
2022/05/12 09:38:41;;;;;;;0.53;0.40;;;;;;;30.36;24.34;95798.22;5112722;28;20913;-63
2022/05/12 09:41:21;;;;;;;0.50;0.50;;;;;;;29.56;24.48;95795.34;5112485;28;20427;-62
2022/05/12 09:43:52;;;;;;;0.50;0.40;;;;;;;30.45;24.84;95784.97;5112755;28;20415;-56
2022/05/12 09:46:29;;;;;;;0.40;0.30;;;;;;;29.88;25.27;95786.63;5112658;28;20459;-55
2022/05/12 09:49:18;;;;;;;0.40;0.40;;;;;;;30.54;25.15;95783.44;5111806;28;20470;-58
2022/05/12 09:51:47;;;;;;;0.40;0.30;;;;;;;29.86;23.54;95784.25;5112288;28;20455;-59
2022/05/12 09:54:23;;;;;;;0.30;0.30;;;;;;;31.52;23.39;95776.59;5112143;28;20476;-71
2022/05/12 09:57:12;;;;;;;0.40;0.30;;;;;;;31.65;21.33;95776.97;5111991;28;20774;-72
2022/05/12 09:59:43;;;;;;;0.30;0.20;;;;;;;30.57;22.55;95771.72;5111840;28;20480;-71
2022/05/12 10:08:05;;;;;;;0.60;0.43;;;;;;;30.53;22.13;95761.94;5087730;28;20528;-72
2022/05/12 10:10:36;;;;;;;0.70;0.30;;;;;;;31.72;21.49;95733.91;5112398;28;20485;-71
2022/05/12 10:13:16;;;;;;;0.40;0.30;;;;;;;33.41;20.91;95740.50;5112214;28;20456;-72
2022/05/12 10:15:45;;;;;;;0.40;0.37;;;;;;;32.91;18.69;95745.59;5112216;28;20426;-71
2022/05/12 10:18:28;;;;;;;0.50;0.40;;;;;;;32.59;20.77;95734.00;5112080;28;20936;-72
2022/05/12 10:21:04;;;;;;;2.83;0.57;;;;;;;32.12;22.34;95743.59;5112524;28;20514;-71
2022/05/12 10:23:43;;;;;;;0.57;0.47;;;;;;;33.10;20.67;95736.03;5112515;28;20812;-71
2022/05/12 10:26:15;;;;;;;0.40;0.33;;;;;;;33.01;24.28;95725.50;5112464;28;20501;-71
2022/05/12 10:28:50;;;;;;;0.50;0.30;;;;;;;33.73;21.58;95729.22;5112159;28;20446;-71
2022/05/12 10:31:25;;;;;;;0.30;0.30;;;;;;;34.55;19.57;95720.84;5112198;28;20494;-71
2022/05/12 10:34:22;;;;;;;0.30;0.30;;;;;;;34.06;18.41;95714.75;5112099;28;20466;-71
2022/05/12 10:37:00;;;;;;;0.40;0.30;;;;;;;33.69;18.99;95715.53;5111966;28;20851;-71
2022/05/12 10:39:38;;;;;;;0.57;0.57;;;;;;;31.30;19.81;95677.16;5112528;28;20529;-71
2022/05/12 10:42:19;;;;;;;0.40;0.30;;;;;;;32.54;22.01;95704.22;5111148;28;20426;-72
2022/05/12 10:45:03;;;;;;;0.53;0.53;;;;;;;31.15;19.46;95713.16;5112614;28;20430;-70
2022/05/12 10:47:46;;;;;;;0.40;0.30;;;;;;;32.11;20.01;95709.13;5111866;28;20431;-70
2022/05/12 10:50:20;;;;;;;0.40;0.30;;;;;;;32.61;21.05;95696.72;5111602;28;20616;-67
2022/05/12 10:53:03;;;;;;;0.37;0.30;;;;;;;32.76;20.24;95704.88;5111241;28;20422;-68
2022/05/12 10:55:40;;;;;;;0.40;0.40;;;;;;;32.84;19.06;95690.69;5111901;28;20454;-69
2022/05/12 10:58:26;;;;;;;0.70;0.40;;;;;;;32.88;18.37;95705.19;5111661;28;20460;-70
2022/05/12 11:01:09;;;;;;;0.30;0.20;;;;;;;34.12;18.20;95693.88;5113067;28;20514;-71
2022/05/12 11:03:45;;;;;;;0.40;0.40;;;;;;;34.65;17.39;95693.19;5115542;28;20513;-73
2022/05/12 11:06:18;;;;;;;0.30;0.30;;;;;;;34.72;18.17;95695.03;5115446;28;20426;-70
2022/05/12 11:08:51;;;;;;;0.40;0.30;;;;;;;33.46;17.87;95687.84;5115371;28;20498;-70
2022/05/12 11:11:24;;;;;;;0.50;0.40;;;;;;;33.43;18.73;95679.63;5115341;28;20903;-70
2022/05/12 11:14:01;;;;;;;0.50;0.50;;;;;;;33.39;20.42;95676.16;5114982;28;20526;-69
2022/05/12 11:16:36;;;;;;;0.40;0.40;;;;;;;34.39;19.18;95674.63;5115656;28;20462;-70
2022/05/12 11:19:15;;;;;;;0.50;0.50;;;;;;;33.02;19.82;95674.06;5115466;28;20491;-69
2022/05/12 11:21:58;;;;;;;0.43;0.40;;;;;;;33.07;20.29;95665.44;5115316;28;20431;-70
2022/05/12 11:24:41;;;;;;;0.40;0.40;;;;;;;32.15;20.83;95668.75;5115104;28;20797;-70
2022/05/12 11:27:23;;;;;;;0.60;0.40;;;;;;;32.56;20.54;95658.72;5115012;28;20427;-70
2022/05/12 11:30:23;;;;;;;0.40;0.30;;;;;;;32.51;20.79;95659.16;5115330;28;20458;-69
2022/05/12 11:33:03;;;;;;;0.40;0.40;;;;;;;32.25;21.73;95650.66;5114969;28;20769;-70
2022/05/12 11:35:35;;;;;;;1.53;1.23;;;;;;;31.48;20.75;95649.75;5115041;28;20423;-70
2022/05/12 11:38:07;;;;;;;0.50;0.50;;;;;;;33.00;20.44;95646.25;5116324;28;20434;-70
2022/05/12 11:40:52;;;;;;;0.40;0.40;;;;;;;32.82;19.69;95563.22;5122622;28;20426;-72
2022/05/12 11:46:54;;;;;;;0.40;0.30;;;;;;;33.83;19.58;95646.63;5072672;28;20460;-71
2022/05/12 11:49:39;;;;;;;0.40;0.40;;;;;;;32.89;18.95;95642.81;5108568;27;20456;-71
2022/05/12 11:52:23;;;;;;;0.40;0.30;;;;;;;33.35;20.00;95620.44;5114324;28;20437;-74
2022/05/12 11:54:57;;;;;;;0.40;0.30;;;;;;;33.73;19.52;95625.53;5114521;28;20495;-70
2022/05/12 11:57:29;;;;;;;0.40;0.30;;;;;;;33.78;18.94;95616.03;5114800;28;20451;-71
2022/05/12 11:59:58;;;;;;;0.30;0.30;;;;;;;32.71;20.50;95625.69;5114523;28;20434;-72
2022/05/12 12:02:48;;;;;;;0.40;0.30;;;;;;;34.92;19.80;95613.28;5114311;28;20926;-71
2022/05/12 12:06:07;;;;;;;5.03;0.47;;;;;;;34.12;20.06;95613.28;5113760;28;20419;-72
2022/05/12 12:08:43;;;;;;;0.63;0.63;;;;;;;33.37;19.50;95616.06;5031137;28;20488;-73
2022/05/12 12:11:29;;;;;;;0.40;0.37;;;;;;;33.13;19.97;95603.38;5031335;28;20490;-71
2022/05/12 12:14:00;;;;;;;0.63;0.60;;;;;;;33.96;19.88;95605.59;5082791;28;20604;-71